Time;durP1;ratioP1;P1;durP2;ratioP2;P2;SDS_P1;SDS_P2;PMS_P1;PMS_P2;Temp;Humidity;BMP_temperature;BMP_pressure;BME280_temperature;BME280_humidity;BME280_pressure;Samples;Min_cycle;Max_cycle;Signal;HPM_P1;HPM_P2
2022/04/07 00:00:19;;;;;;;4.68;2.63;;;12.70;86.00;;;;;;5033369;28;20680;-73
2022/04/07 00:02:45;;;;;;;5.18;3.00;;;12.70;86.10;;;;;;5032703;28;20111;-73
2022/04/07 00:05:11;;;;;;;6.85;2.70;;;12.70;86.20;;;;;;5033528;28;20465;-73
2022/04/07 00:07:36;;;;;;;4.55;2.55;;;12.70;86.40;;;;;;5033403;28;20022;-74
2022/04/07 00:10:03;;;;;;;4.90;2.45;;;12.60;86.40;;;;;;5036444;28;20403;-73
2022/04/07 00:12:29;;;;;;;5.97;3.00;;;12.50;86.50;;;;;;5037399;28;20029;-73
2022/04/07 00:14:55;;;;;;;6.30;2.70;;;12.60;86.70;;;;;;5033367;28;20028;-73
2022/04/07 00:17:20;;;;;;;4.65;2.67;;;12.50;86.70;;;;;;5033183;28;20420;-73
2022/04/07 00:19:46;;;;;;;7.65;2.55;;;12.50;86.70;;;;;;5032500;28;20033;-73
2022/04/07 00:22:11;;;;;;;4.97;2.67;;;12.50;86.90;;;;;;5033274;28;20366;-73
2022/04/07 00:24:37;;;;;;;5.97;2.55;;;12.50;86.90;;;;;;5032453;28;20026;-73
2022/04/07 00:27:03;;;;;;;5.63;2.97;;;12.50;86.90;;;;;;5032930;28;20025;-73
2022/04/07 00:29:28;;;;;;;8.27;2.88;;;12.40;87.00;;;;;;5032190;28;20044;-73
2022/04/07 00:31:57;;;;;;;7.00;2.60;;;12.40;87.10;;;;;;5033078;28;20018;-73
2022/04/07 00:34:23;;;;;;;5.70;2.58;;;12.50;87.20;;;;;;5032643;28;20209;-73
2022/04/07 00:36:49;;;;;;;8.02;4.00;;;12.40;87.20;;;;;;5038841;28;20028;-73
2022/04/07 00:39:14;;;;;;;6.95;3.60;;;12.40;87.20;;;;;;5039830;28;20025;-72
2022/04/07 00:41:40;;;;;;;8.50;2.70;;;12.30;87.20;;;;;;5038441;28;20021;-73
2022/04/07 00:44:08;;;;;;;4.18;2.47;;;12.40;87.30;;;;;;5032341;28;20033;-72
2022/04/07 00:46:35;;;;;;;4.15;2.35;;;12.30;87.50;;;;;;5032520;28;20466;-72
2022/04/07 00:49:00;;;;;;;3.80;2.40;;;12.20;87.50;;;;;;5032256;28;20579;-72
2022/04/07 00:51:26;;;;;;;4.10;2.60;;;12.20;87.50;;;;;;5032680;28;20029;-72
2022/04/07 00:53:51;;;;;;;6.95;2.35;;;12.20;87.50;;;;;;5032002;28;20036;-72
2022/04/07 00:56:18;;;;;;;4.90;2.67;;;12.20;87.60;;;;;;5041675;28;20028;-72
2022/04/07 00:58:45;;;;;;;5.60;2.65;;;12.20;87.50;;;;;;5038200;28;20038;-72
2022/04/07 01:01:10;;;;;;;5.68;2.72;;;12.20;87.60;;;;;;5032074;28;20666;-72
2022/04/07 01:03:36;;;;;;;6.13;3.22;;;12.10;87.60;;;;;;5037025;28;20099;-73
2022/04/07 01:06:02;;;;;;;5.88;2.40;;;12.10;87.60;;;;;;5050814;28;20090;-72
2022/04/07 01:08:28;;;;;;;5.90;2.30;;;12.10;87.60;;;;;;5050283;28;20055;-72
2022/04/07 01:10:54;;;;;;;3.85;2.50;;;12.10;87.60;;;;;;5037870;28;20025;-72
2022/04/07 01:13:19;;;;;;;3.78;2.28;;;12.10;87.70;;;;;;5034595;28;20057;-72
2022/04/07 01:15:44;;;;;;;5.25;2.25;;;12.10;87.70;;;;;;5037162;28;20029;-72
2022/04/07 01:18:10;;;;;;;6.65;2.55;;;12.10;87.90;;;;;;5032127;28;20164;-72
2022/04/07 01:20:37;;;;;;;4.60;2.30;;;12.00;88.00;;;;;;5032010;28;20514;-72
2022/04/07 01:23:02;;;;;;;4.28;2.40;;;12.00;88.20;;;;;;5031437;28;20078;-72
2022/04/07 01:25:29;;;;;;;3.83;2.47;;;11.90;88.30;;;;;;5031959;28;20033;-72
2022/04/07 01:27:55;;;;;;;3.90;2.40;;;11.90;88.50;;;;;;5045440;28;20113;-73
2022/04/07 01:30:21;;;;;;;7.95;2.50;;;11.90;88.60;;;;;;5050165;28;20108;-72
2022/04/07 01:32:58;;;;;;;4.45;2.63;;;11.90;88.70;;;;;;5036937;28;20319;-73
2022/04/07 01:35:24;;;;;;;5.45;2.40;;;11.90;88.90;;;;;;5031908;28;20037;-73
2022/04/07 01:37:52;;;;;;;7.32;3.13;;;12.00;88.90;;;;;;5031531;28;20033;-72
2022/04/07 01:40:25;;;;;;;5.25;2.85;;;12.00;88.90;;;;;;5037198;28;20083;-73
2022/04/07 01:42:52;;;;;;;5.47;2.67;;;12.00;88.90;;;;;;5051105;28;20495;-72
2022/04/07 01:45:19;;;;;;;4.65;3.03;;;12.00;88.80;;;;;;5051068;28;20071;-72
2022/04/07 01:47:45;;;;;;;4.82;3.10;;;11.90;88.90;;;;;;5051444;28;20020;-72
2022/04/07 01:50:11;;;;;;;5.10;2.90;;;11.90;88.90;;;;;;5032884;28;20052;-73
2022/04/07 01:52:39;;;;;;;5.05;3.20;;;11.90;89.00;;;;;;5032413;28;20025;-73
2022/04/07 01:55:06;;;;;;;7.38;2.65;;;11.90;89.20;;;;;;5035413;28;20388;-73
2022/04/07 01:57:32;;;;;;;5.13;3.10;;;11.90;89.10;;;;;;5041178;28;20021;-73
2022/04/07 01:59:58;;;;;;;7.63;3.10;;;11.90;89.20;;;;;;5030320;28;20045;-73
2022/04/07 02:02:24;;;;;;;6.70;2.90;;;11.90;89.30;;;;;;5031081;28;20049;-73
2022/04/07 02:05:03;;;;;;;5.85;3.47;;;11.80;89.40;;;;;;5031229;28;20033;-72
2022/04/07 02:07:32;;;;;;;7.53;4.60;;;11.90;89.50;;;;;;5050978;28;20021;-73
2022/04/07 02:09:59;;;;;;;6.88;3.03;;;11.80;89.60;;;;;;5044942;28;20037;-73
2022/04/07 02:12:29;;;;;;;7.53;3.55;;;11.80;89.80;;;;;;5031041;28;20022;-72
2022/04/07 02:14:59;;;;;;;8.32;3.45;;;11.80;89.90;;;;;;5042273;28;20025;-72
2022/04/07 02:17:25;;;;;;;6.85;3.60;;;11.80;90.00;;;;;;5051097;28;20029;-73
2022/04/07 02:19:54;;;;;;;7.22;3.78;;;11.90;90.00;;;;;;5040615;28;20022;-73
2022/04/07 02:22:21;;;;;;;9.55;3.65;;;11.80;90.00;;;;;;5030277;28;20476;-73
2022/04/07 02:24:47;;;;;;;6.10;3.75;;;11.90;90.10;;;;;;5011535;28;20131;-72
2022/04/07 02:27:14;;;;;;;7.70;3.78;;;11.90;90.10;;;;;;5015500;28;20430;-72
2022/04/07 02:29:40;;;;;;;7.00;3.70;;;11.90;90.10;;;;;;5015065;28;20033;-72
2022/04/07 02:32:07;;;;;;;8.00;4.20;;;11.80;90.10;;;;;;5015355;28;20048;-73
2022/04/07 02:34:32;;;;;;;7.68;3.75;;;11.80;90.20;;;;;;5015219;28;20037;-73
2022/04/07 02:36:58;;;;;;;7.05;4.72;;;11.80;90.20;;;;;;5014774;28;20029;-72
2022/04/07 02:39:23;;;;;;;9.30;4.30;;;11.70;90.20;;;;;;5017959;28;20538;-72
2022/04/07 02:41:49;;;;;;;8.77;4.00;;;11.70;90.30;;;;;;5033993;28;20441;-73
2022/04/07 02:44:15;;;;;;;8.20;3.58;;;11.70;90.40;;;;;;5034715;28;20525;-71
2022/04/07 02:46:40;;;;;;;6.25;4.28;;;11.70;90.30;;;;;;5034596;28;20505;-71
2022/04/07 02:49:06;;;;;;;6.47;3.55;;;11.70;90.40;;;;;;5015853;28;20053;-71
2022/04/07 02:51:31;;;;;;;7.03;4.00;;;11.70;90.40;;;;;;5013448;28;20033;-71
2022/04/07 02:53:58;;;;;;;6.22;3.67;;;11.70;90.40;;;;;;5014638;28;20113;-71
2022/04/07 02:56:27;;;;;;;6.13;3.70;;;11.60;90.50;;;;;;5016270;28;20025;-71
2022/04/07 02:58:53;;;;;;;7.68;3.95;;;11.60;90.60;;;;;;5013290;28;20044;-73
2022/04/07 03:01:19;;;;;;;6.68;4.15;;;11.60;90.60;;;;;;5014671;28;20034;-73
2022/04/07 03:03:45;;;;;;;7.07;4.30;;;11.60;90.60;;;;;;5014282;28;20091;-72
2022/04/07 03:06:10;;;;;;;11.88;4.60;;;11.60;90.60;;;;;;5014437;28;20152;-73
2022/04/07 03:08:36;;;;;;;7.20;4.60;;;11.60;90.70;;;;;;5014865;28;20034;-72
2022/04/07 03:11:02;;;;;;;9.55;4.63;;;11.50;90.70;;;;;;5016807;28;20401;-73
2022/04/07 03:13:28;;;;;;;7.13;3.90;;;11.50;90.80;;;;;;5014932;28;20033;-73
2022/04/07 03:15:54;;;;;;;7.75;4.30;;;11.50;90.80;;;;;;5014544;28;20022;-74
2022/04/07 03:18:20;;;;;;;7.55;3.75;;;11.50;90.90;;;;;;5014386;28;20022;-73
2022/04/07 03:20:45;;;;;;;6.55;4.50;;;11.50;90.90;;;;;;5032842;28;20021;-72
2022/04/07 03:23:11;;;;;;;6.10;4.28;;;11.40;91.00;;;;;;5032953;28;20391;-73
2022/04/07 03:25:37;;;;;;;6.88;4.57;;;11.40;91.00;;;;;;5014256;28;20037;-74
2022/04/07 03:28:03;;;;;;;7.05;4.13;;;11.30;91.10;;;;;;5027439;28;20033;-73
2022/04/07 03:30:29;;;;;;;7.63;3.90;;;11.30;91.10;;;;;;5029213;28;20026;-74
2022/04/07 03:32:54;;;;;;;7.40;3.65;;;11.30;91.20;;;;;;5013713;28;20092;-72
2022/04/07 03:35:20;;;;;;;6.60;4.07;;;11.20;91.30;;;;;;5013678;28;20156;-71
2022/04/07 03:37:45;;;;;;;6.40;3.85;;;11.30;91.20;;;;;;5014090;28;20064;-72
2022/04/07 03:40:12;;;;;;;6.95;4.13;;;11.30;91.30;;;;;;5014124;28;20069;-70
2022/04/07 03:42:37;;;;;;;8.13;3.85;;;11.20;91.30;;;;;;5013877;28;20033;-69
2022/04/07 03:45:03;;;;;;;5.72;3.72;;;11.20;91.40;;;;;;5013865;28;20034;-70
2022/04/07 03:47:35;;;;;;;7.85;4.30;;;11.20;91.50;;;;;;5019062;28;20037;-69
2022/04/07 03:50:00;;;;;;;6.55;4.00;;;11.20;91.60;;;;;;5033121;28;20033;-70
2022/04/07 03:52:26;;;;;;;5.97;4.07;;;11.20;91.70;;;;;;5029344;28;20485;-70
2022/04/07 03:54:52;;;;;;;9.00;4.40;;;11.20;91.70;;;;;;5013413;28;20054;-70
2022/04/07 03:57:18;;;;;;;8.45;3.75;;;11.20;91.70;;;;;;5017502;28;20041;-70
2022/04/07 03:59:44;;;;;;;7.65;4.22;;;11.20;91.70;;;;;;5013409;28;20025;-69
2022/04/07 04:02:10;;;;;;;6.40;4.05;;;11.20;91.70;;;;;;5013400;28;20040;-70
2022/04/07 04:04:36;;;;;;;7.00;3.90;;;11.20;91.80;;;;;;5017351;28;20041;-70
2022/04/07 04:07:02;;;;;;;8.18;4.32;;;11.20;91.90;;;;;;5024213;28;20026;-69
2022/04/07 04:09:28;;;;;;;6.20;3.85;;;11.20;91.90;;;;;;5013467;28;20478;-70
2022/04/07 04:11:53;;;;;;;7.68;3.83;;;11.20;91.90;;;;;;5013264;28;20144;-70
2022/04/07 04:14:19;;;;;;;5.65;3.67;;;11.20;92.00;;;;;;5013248;28;20405;-70
2022/04/07 04:16:45;;;;;;;6.88;4.25;;;11.30;92.00;;;;;;5013026;28;20111;-69
2022/04/07 04:19:11;;;;;;;6.18;3.70;;;11.30;92.00;;;;;;5012770;28;20050;-69
2022/04/07 04:21:37;;;;;;;6.85;4.20;;;11.30;92.10;;;;;;5013929;28;20482;-67
2022/04/07 04:24:02;;;;;;;6.07;4.20;;;11.30;92.10;;;;;;5012993;28;20100;-66
2022/04/07 04:26:28;;;;;;;6.55;3.83;;;11.30;92.10;;;;;;5022506;28;20033;-68
2022/04/07 04:28:55;;;;;;;6.68;3.90;;;11.40;92.10;;;;;;5032723;28;20121;-69
2022/04/07 04:31:24;;;;;;;6.13;3.90;;;11.40;92.10;;;;;;5031256;28;20045;-69
2022/04/07 04:33:56;;;;;;;6.10;3.53;;;11.40;92.30;;;;;;5012487;28;20030;-69
2022/04/07 04:36:22;;;;;;;6.45;3.80;;;11.40;92.10;;;;;;5013742;28;20114;-69
2022/04/07 04:38:47;;;;;;;6.32;3.60;;;11.40;92.10;;;;;;5014302;28;20500;-70
2022/04/07 04:41:13;;;;;;;7.40;3.30;;;11.50;92.10;;;;;;5022835;28;20036;-69
2022/04/07 04:43:39;;;;;;;5.43;3.45;;;11.50;92.10;;;;;;5010880;28;20044;-69
2022/04/07 04:46:07;;;;;;;7.32;3.42;;;11.50;92.30;;;;;;5020401;28;20107;-69
2022/04/07 04:48:38;;;;;;;6.38;3.25;;;11.50;92.10;;;;;;5031155;28;20121;-69
2022/04/07 04:51:04;;;;;;;6.18;3.65;;;11.50;92.20;;;;;;5022756;28;20025;-70
2022/04/07 04:53:29;;;;;;;6.78;3.10;;;11.60;92.20;;;;;;5013966;28;20076;-70
2022/04/07 04:55:55;;;;;;;4.90;3.20;;;11.50;92.10;;;;;;5033987;28;20515;-69
2022/04/07 04:58:20;;;;;;;5.68;3.10;;;11.50;92.10;;;;;;5017578;28;20042;-69
2022/04/07 05:00:46;;;;;;;5.38;3.30;;;11.60;92.10;;;;;;5012322;28;20608;-69
2022/04/07 05:03:12;;;;;;;5.65;3.17;;;11.60;92.10;;;;;;5011982;28;20123;-68
2022/04/07 05:05:37;;;;;;;4.63;3.20;;;11.60;92.10;;;;;;5014083;28;20033;-69
2022/04/07 05:08:03;;;;;;;5.55;3.38;;;11.60;92.20;;;;;;5012152;28;20419;-70
2022/04/07 05:10:28;;;;;;;5.50;3.42;;;11.60;92.20;;;;;;5012422;28;20113;-70
2022/04/07 05:12:54;;;;;;;5.63;3.20;;;11.60;92.20;;;;;;5018710;28;20025;-69
2022/04/07 05:15:19;;;;;;;5.82;3.33;;;11.60;92.10;;;;;;5026924;28;20029;-70
2022/04/07 05:17:49;;;;;;;11.05;4.53;;;11.70;92.10;;;;;;5019580;28;20104;-69
2022/04/07 05:20:15;;;;;;;5.00;3.58;;;11.70;92.20;;;;;;5011903;28;20022;-69
2022/04/07 05:22:41;;;;;;;4.63;3.15;;;11.70;92.10;;;;;;5012101;28;20025;-70
2022/04/07 05:25:07;;;;;;;5.68;3.17;;;11.70;92.10;;;;;;5012069;28;20026;-70
2022/04/07 05:27:36;;;;;;;6.72;3.20;;;11.70;92.10;;;;;;5012135;28;20034;-70
2022/04/07 05:30:06;;;;;;;4.50;3.13;;;11.70;92.10;;;;;;5016078;28;20478;-70
2022/04/07 05:32:32;;;;;;;5.47;3.10;;;11.70;92.10;;;;;;5012096;28;20554;-70
2022/04/07 05:34:57;;;;;;;4.55;3.05;;;11.70;92.10;;;;;;5013909;28;20117;-70
2022/04/07 05:37:24;;;;;;;6.38;3.38;;;11.80;92.10;;;;;;5012074;28;20041;-70
2022/04/07 05:39:51;;;;;;;5.88;3.05;;;11.80;92.10;;;;;;5012046;28;20030;-70
2022/04/07 05:42:17;;;;;;;5.75;3.00;;;11.80;92.20;;;;;;5014072;28;20026;-70
2022/04/07 05:44:43;;;;;;;6.88;3.08;;;11.80;92.30;;;;;;5031106;28;20037;-70
2022/04/07 05:47:08;;;;;;;5.07;3.00;;;11.90;92.30;;;;;;5023749;28;20022;-69
2022/04/07 05:49:34;;;;;;;4.68;2.85;;;11.90;92.20;;;;;;5012217;28;20033;-70
2022/04/07 05:52:02;;;;;;;5.88;2.88;;;11.90;92.20;;;;;;5011692;28;20424;-70
2022/04/07 05:54:28;;;;;;;5.68;2.92;;;11.90;92.20;;;;;;5013184;28;20045;-70
2022/04/07 05:56:53;;;;;;;6.53;3.40;;;12.00;92.20;;;;;;5037600;28;20523;-70
2022/04/07 05:59:19;;;;;;;6.22;3.30;;;12.00;92.30;;;;;;5045452;28;20025;-70
2022/04/07 06:01:44;;;;;;;7.00;3.35;;;12.10;92.30;;;;;;5011887;28;20056;-69
2022/04/07 06:04:10;;;;;;;5.05;3.05;;;12.20;92.20;;;;;;5019991;28;20077;-71
2022/04/07 06:06:35;;;;;;;4.10;2.63;;;12.20;92.20;;;;;;5031640;28;20473;-73
2022/04/07 06:09:01;;;;;;;5.25;3.10;;;12.30;92.20;;;;;;5031381;28;20025;-69
2022/04/07 06:11:26;;;;;;;4.95;2.97;;;12.40;92.20;;;;;;5011933;28;20167;-71
2022/04/07 06:13:52;;;;;;;5.22;2.95;;;12.40;92.10;;;;;;5011113;28;20549;-72
2022/04/07 06:16:17;;;;;;;9.77;3.75;;;12.40;92.10;;;;;;5028053;28;20101;-72
2022/04/07 06:18:43;;;;;;;7.45;4.10;;;12.50;92.00;;;;;;5030992;28;20366;-72
2022/04/07 06:21:08;;;;;;;5.53;2.95;;;12.50;92.00;;;;;;5026380;28;20079;-69
2022/04/07 06:23:34;;;;;;;6.47;2.63;;;12.60;91.90;;;;;;5016704;28;20037;-69
2022/04/07 06:25:59;;;;;;;5.97;2.83;;;12.70;91.90;;;;;;5021890;28;20032;-70
2022/04/07 06:28:25;;;;;;;6.97;3.15;;;12.70;91.80;;;;;;5021504;28;20022;-70
2022/04/07 06:30:51;;;;;;;5.13;2.50;;;12.70;91.80;;;;;;5028819;28;20508;-70
2022/04/07 06:33:18;;;;;;;7.07;3.03;;;12.80;91.80;;;;;;5029792;28;20022;-70
2022/04/07 06:35:43;;;;;;;5.82;2.42;;;12.90;91.80;;;;;;5030706;28;20164;-69
2022/04/07 06:38:09;;;;;;;4.38;2.70;;;13.00;91.70;;;;;;5019032;28;20105;-69
2022/04/07 06:40:37;;;;;;;5.07;2.38;;;13.00;91.60;;;;;;5011677;28;20037;-69
2022/04/07 06:43:02;;;;;;;5.68;2.55;;;13.00;91.60;;;;;;5018777;28;20409;-69
2022/04/07 06:45:29;;;;;;;5.25;2.60;;;13.10;91.60;;;;;;5030835;28;20021;-69
2022/04/07 06:47:55;;;;;;;7.53;3.00;;;13.10;91.40;;;;;;5029793;28;20061;-68
2022/04/07 06:50:23;;;;;;;5.57;2.63;;;13.20;91.40;;;;;;5029472;28;20099;-70
2022/04/07 06:52:49;;;;;;;5.63;2.75;;;13.20;91.30;;;;;;5029458;28;20438;-69
2022/04/07 06:55:15;;;;;;;7.55;3.00;;;13.20;91.30;;;;;;5027959;28;20021;-67
2022/04/07 06:58:01;;;;;;;5.18;2.60;;;13.30;91.30;;;;;;5029193;28;20038;-67
2022/04/07 07:00:29;;;;;;;6.07;2.90;;;13.30;91.20;;;;;;5015646;28;20037;-67
2022/04/07 07:02:56;;;;;;;7.40;2.40;;;13.40;91.20;;;;;;5010976;28;20046;-68
2022/04/07 07:05:24;;;;;;;3.72;2.47;;;13.50;91.20;;;;;;5020955;28;20033;-68
2022/04/07 07:07:50;;;;;;;5.28;2.65;;;13.50;91.00;;;;;;5030359;28;20022;-68
2022/04/07 07:10:24;;;;;;;4.25;2.42;;;13.60;91.00;;;;;;5029820;28;20029;-67
2022/04/07 07:12:52;;;;;;;5.20;2.50;;;13.70;90.80;;;;;;5019632;28;20033;-68
2022/04/07 07:15:17;;;;;;;8.65;3.25;;;13.70;90.70;;;;;;5034058;28;20025;-68
2022/04/07 07:17:43;;;;;;;4.25;2.60;;;13.80;90.70;;;;;;5026672;28;20113;-68
2022/04/07 07:20:10;;;;;;;5.75;2.40;;;13.80;90.50;;;;;;5013960;28;20026;-68
2022/04/07 07:22:37;;;;;;;5.10;2.70;;;13.80;90.40;;;;;;5013825;28;20026;-67
2022/04/07 07:25:03;;;;;;;5.30;3.00;;;13.90;90.30;;;;;;5030695;28;20538;-68
2022/04/07 07:27:35;;;;;;;4.43;2.35;;;13.90;90.20;;;;;;5013671;28;20022;-68
2022/04/07 07:30:01;;;;;;;3.72;2.15;;;13.90;90.20;;;;;;5018495;28;20029;-68
2022/04/07 07:32:26;;;;;;;3.67;2.40;;;14.00;90.20;;;;;;5019833;28;20049;-67
2022/04/07 07:34:52;;;;;;;4.97;2.17;;;14.00;90.10;;;;;;5019471;28;20505;-68
2022/04/07 07:37:18;;;;;;;4.35;2.28;;;14.10;90.00;;;;;;5026364;28;20037;-68
2022/04/07 07:39:44;;;;;;;3.00;2.05;;;14.10;90.00;;;;;;5020962;28;20200;-67
2022/04/07 07:42:09;;;;;;;4.28;2.53;;;14.20;89.60;;;;;;5015152;28;20605;-68
2022/04/07 07:44:35;;;;;;;4.47;2.38;;;14.20;89.80;;;;;;5013546;28;20022;-67
2022/04/07 07:47:00;;;;;;;2.88;1.80;;;14.30;89.00;;;;;;5025378;28;20021;-68
2022/04/07 07:49:26;;;;;;;3.70;2.05;;;14.20;88.80;;;;;;5024266;28;20032;-68
2022/04/07 07:51:51;;;;;;;4.68;2.17;;;14.30;88.90;;;;;;5014701;28;20107;-67
2022/04/07 07:54:17;;;;;;;3.42;2.15;;;14.30;88.70;;;;;;5033388;28;20049;-68
2022/04/07 07:56:43;;;;;;;3.63;1.77;;;14.40;88.50;;;;;;5020681;28;20039;-67
2022/04/07 07:59:08;;;;;;;2.03;1.65;;;14.50;88.20;;;;;;5033789;28;20072;-68
2022/04/07 08:01:34;;;;;;;4.18;2.03;;;14.60;88.00;;;;;;5031906;28;20417;-67
2022/04/07 08:03:59;;;;;;;2.90;1.70;;;14.70;87.40;;;;;;5016452;28;20061;-67
2022/04/07 08:06:25;;;;;;;3.33;2.13;;;14.70;87.30;;;;;;5017933;28;20053;-67
2022/04/07 08:08:50;;;;;;;4.68;2.05;;;14.70;87.10;;;;;;5032972;28;20035;-67
2022/04/07 08:11:16;;;;;;;3.83;2.50;;;14.80;86.90;;;;;;5032229;28;20017;-67
2022/04/07 08:13:41;;;;;;;6.30;2.45;;;14.80;86.90;;;;;;5032844;28;20021;-67
2022/04/07 08:16:07;;;;;;;3.42;2.20;;;14.80;86.90;;;;;;5031955;28;20025;-67
2022/04/07 08:18:32;;;;;;;6.80;2.17;;;14.80;87.00;;;;;;5023317;28;20037;-67
2022/04/07 08:20:58;;;;;;;4.07;1.92;;;14.80;86.70;;;;;;5018810;28;20328;-67
2022/04/07 08:23:24;;;;;;;4.10;2.20;;;14.90;86.80;;;;;;5013122;28;20030;-67
2022/04/07 08:25:49;;;;;;;4.68;2.00;;;14.90;86.60;;;;;;5012673;28;20476;-67
2022/04/07 08:28:15;;;;;;;3.13;1.95;;;15.00;86.50;;;;;;5012913;28;20018;-67
2022/04/07 08:30:40;;;;;;;2.85;1.98;;;15.00;86.40;;;;;;5012715;28;20188;-68
2022/04/07 08:33:06;;;;;;;3.67;2.10;;;15.00;86.50;;;;;;5029091;28;20029;-67
2022/04/07 08:35:31;;;;;;;7.63;2.70;;;15.10;86.60;;;;;;5020092;28;20630;-66
2022/04/07 08:37:57;;;;;;;3.25;2.08;;;15.10;86.30;;;;;;5028193;28;20492;-67
2022/04/07 08:40:22;;;;;;;2.92;1.70;;;15.10;85.90;;;;;;5032667;28;20481;-67
2022/04/07 08:42:48;;;;;;;3.75;2.13;;;15.20;85.80;;;;;;5018483;28;20018;-68
2022/04/07 08:45:14;;;;;;;4.15;2.08;;;15.30;85.60;;;;;;5020118;28;20481;-68
2022/04/07 08:47:40;;;;;;;3.22;1.73;;;15.50;85.30;;;;;;5012174;28;20500;-68
2022/04/07 08:50:07;;;;;;;3.35;1.90;;;15.50;85.00;;;;;;5030279;28;20032;-69
2022/04/07 08:52:34;;;;;;;3.75;1.95;;;15.60;85.30;;;;;;5030976;28;20033;-68
2022/04/07 08:55:00;;;;;;;6.03;1.80;;;15.60;84.10;;;;;;5016032;28;20105;-68
2022/04/07 08:57:26;;;;;;;6.95;2.25;;;15.70;84.30;;;;;;5012722;28;20164;-67
2022/04/07 08:59:52;;;;;;;2.20;1.38;;;15.80;83.90;;;;;;5013210;28;20033;-67
2022/04/07 09:02:18;;;;;;;3.72;1.40;;;15.80;83.40;;;;;;5030291;28;20025;-66
2022/04/07 09:04:44;;;;;;;2.92;1.35;;;15.80;83.00;;;;;;5031417;28;20120;-66
2022/04/07 09:07:13;;;;;;;3.30;1.30;;;15.90;82.80;;;;;;5021533;28;20393;-66
2022/04/07 09:09:39;;;;;;;2.83;1.40;;;15.90;82.80;;;;;;5012270;28;20026;-66
2022/04/07 09:12:05;;;;;;;2.88;1.20;;;15.90;82.70;;;;;;5016483;28;20048;-66
2022/04/07 09:14:34;;;;;;;4.75;1.52;;;16.00;82.60;;;;;;5012090;28;20037;-67
2022/04/07 09:17:00;;;;;;;2.78;1.17;;;16.00;83.00;;;;;;5031008;28;20038;-66
2022/04/07 09:19:28;;;;;;;4.10;1.52;;;16.10;82.60;;;;;;5011625;28;20060;-66
2022/04/07 09:22:05;;;;;;;1.95;1.27;;;16.10;82.50;;;;;;5030936;28;20033;-66
2022/04/07 09:24:34;;;;;;;4.18;1.63;;;16.20;82.30;;;;;;5018662;28;20044;-66
2022/04/07 09:27:06;;;;;;;3.42;1.63;;;16.20;82.20;;;;;;5015034;28;20103;-66
2022/04/07 09:29:44;;;;;;;3.30;1.58;;;16.30;82.10;;;;;;5016709;28;20088;-67
2022/04/07 09:32:20;;;;;;;4.07;1.83;;;16.40;82.00;;;;;;5011464;28;20096;-67
2022/04/07 09:35:06;;;;;;;2.38;1.63;;;16.50;82.00;;;;;;5024129;28;20025;-66
2022/04/07 09:37:32;;;;;;;3.95;1.65;;;16.50;81.90;;;;;;5024544;28;20030;-67
2022/04/07 09:40:12;;;;;;;3.50;1.55;;;16.60;81.20;;;;;;5013188;28;20120;-66
2022/04/07 09:42:41;;;;;;;1.45;1.10;;;16.70;80.90;;;;;;5011908;28;20042;-66
2022/04/07 09:45:11;;;;;;;3.22;1.10;;;16.80;80.30;;;;;;5020015;28;20139;-67
2022/04/07 09:47:41;;;;;;;3.67;1.08;;;16.80;80.20;;;;;;5011461;28;20034;-67
2022/04/07 09:50:22;;;;;;;2.75;1.95;;;16.90;80.20;;;;;;5010988;28;20029;-67
2022/04/07 09:53:03;;;;;;;1.67;0.90;;;16.90;79.20;;;;;;5011384;28;20068;-67
2022/04/07 09:55:35;;;;;;;3.30;1.42;;;16.90;79.30;;;;;;5028910;28;20033;-67
2022/04/07 09:58:04;;;;;;;4.22;1.50;;;16.90;78.60;;;;;;5018845;28;20564;-67
2022/04/07 10:00:30;;;;;;;4.97;1.58;;;16.80;78.20;;;;;;5021777;28;20068;-67
2022/04/07 10:02:57;;;;;;;2.00;1.30;;;16.80;77.80;;;;;;5009612;28;20247;-67
2022/04/07 10:05:24;;;;;;;3.92;1.25;;;16.70;77.30;;;;;;5018234;28;20030;-67
2022/04/07 10:07:50;;;;;;;2.83;1.30;;;16.70;77.20;;;;;;5022811;28;20052;-66
2022/04/07 10:10:18;;;;;;;4.50;1.40;;;16.60;77.10;;;;;;5023987;28;20056;-66
2022/04/07 10:12:45;;;;;;;6.55;1.60;;;16.60;77.40;;;;;;5022484;28;20036;-67
2022/04/07 10:15:11;;;;;;;4.40;1.60;;;16.50;77.30;;;;;;5010493;28;20033;-66
2022/04/07 10:17:38;;;;;;;4.07;1.48;;;16.60;77.20;;;;;;5018834;28;20040;-66
2022/04/07 10:20:16;;;;;;;2.53;1.40;;;16.50;77.10;;;;;;5023866;28;20412;-67
2022/04/07 10:23:06;;;;;;;3.28;1.35;;;16.60;77.50;;;;;;5023995;28;20084;-66
2022/04/07 10:25:37;;;;;;;2.20;1.20;;;16.80;77.50;;;;;;5013615;28;20424;-66
2022/04/07 10:28:04;;;;;;;3.08;1.35;;;16.80;77.30;;;;;;5024708;28;20130;-66
2022/04/07 10:30:32;;;;;;;1.52;1.42;;;16.90;76.80;;;;;;5014051;28;20037;-66
2022/04/07 10:32:58;;;;;;;3.83;1.30;;;16.90;76.60;;;;;;5015810;28;20024;-66
2022/04/07 10:35:30;;;;;;;1.15;0.98;;;16.80;76.40;;;;;;5028427;28;20048;-67
2022/04/07 10:37:56;;;;;;;3.75;1.10;;;16.80;76.30;;;;;;5027616;28;20032;-68
2022/04/07 10:40:37;;;;;;;1.90;1.17;;;16.80;76.30;;;;;;5013203;28;20025;-67
2022/04/07 10:43:10;;;;;;;2.47;1.20;;;16.80;76.20;;;;;;5021993;28;20037;-67
2022/04/07 10:45:41;;;;;;;2.50;1.23;;;16.80;75.80;;;;;;5018496;28;20613;-67
2022/04/07 10:48:29;;;;;;;2.83;1.33;;;16.70;76.00;;;;;;5033576;28;20053;-66
2022/04/07 10:51:00;;;;;;;6.32;1.30;;;16.80;76.10;;;;;;5020999;28;20392;-67
2022/04/07 10:53:28;;;;;;;1.45;1.00;;;16.70;76.50;;;;;;5017549;28;20503;-67
2022/04/07 10:56:01;;;;;;;1.80;1.00;;;16.70;76.90;;;;;;5024801;28;20030;-67
2022/04/07 10:58:39;;;;;;;2.67;1.10;;;16.70;77.10;;;;;;5024948;28;20038;-66
2022/04/07 11:01:05;;;;;;;2.63;1.33;;;16.60;77.60;;;;;;5018446;28;20496;-66
2022/04/07 11:03:32;;;;;;;2.72;1.10;;;16.60;78.60;;;;;;5027428;28;20173;-65
2022/04/07 11:06:06;;;;;;;1.20;0.90;;;16.60;79.00;;;;;;5017071;28;20034;-68
2022/04/07 11:08:32;;;;;;;2.40;1.45;;;16.50;79.60;;;;;;5016284;28;20417;-68
2022/04/07 11:10:57;;;;;;;1.48;1.20;;;16.40;80.00;;;;;;5017405;28;20033;-67
2022/04/07 11:13:50;;;;;;;2.85;1.13;;;16.40;80.20;;;;;;5021817;28;20044;-67
2022/04/07 11:16:24;;;;;;;2.90;1.08;;;16.30;80.70;;;;;;5014263;28;20497;-66
2022/04/07 11:19:08;;;;;;;1.42;1.00;;;16.20;80.60;;;;;;5020860;28;20512;-67
2022/04/07 11:21:49;;;;;;;4.55;1.10;;;16.20;80.60;;;;;;5015957;28;20501;-67
2022/04/07 11:24:23;;;;;;;1.92;1.42;;;16.10;80.80;;;;;;5022802;28;20369;-67
2022/04/07 11:26:51;;;;;;;4.00;1.17;;;16.00;80.90;;;;;;5018708;28;20398;-67
2022/04/07 11:29:31;;;;;;;2.78;1.10;;;16.00;80.90;;;;;;5019247;28;20485;-66
2022/04/07 11:32:07;;;;;;;1.83;1.30;;;15.90;80.50;;;;;;5021279;28;20034;-67
2022/04/07 11:34:35;;;;;;;1.80;1.30;;;15.90;80.70;;;;;;5021753;28;20030;-67
2022/04/07 11:37:06;;;;;;;1.52;1.33;;;15.90;80.80;;;;;;5034149;28;20112;-68
2022/04/07 11:39:33;;;;;;;7.50;1.50;;;15.80;80.40;;;;;;5023338;28;20489;-68
2022/04/07 11:42:00;;;;;;;1.00;0.82;;;15.80;80.70;;;;;;5023085;28;20030;-67
2022/04/07 11:44:26;;;;;;;1.85;1.40;;;15.80;80.60;;;;;;5014163;28;20042;-67
2022/04/07 11:46:51;;;;;;;2.03;1.10;;;15.80;80.50;;;;;;5018615;28;20092;-68
2022/04/07 11:49:17;;;;;;;2.03;1.10;;;15.80;80.50;;;;;;5015410;28;20033;-68
2022/04/07 11:51:45;;;;;;;2.60;1.10;;;15.90;80.60;;;;;;5013985;28;20497;-68
2022/04/07 11:54:15;;;;;;;1.05;0.82;;;15.90;80.40;;;;;;5016643;28;20473;-68
2022/04/07 11:56:41;;;;;;;1.77;1.20;;;15.90;80.60;;;;;;5013265;28;20033;-68
2022/04/07 11:59:11;;;;;;;1.75;1.08;;;15.90;80.80;;;;;;5015527;28;20457;-68
2022/04/07 12:01:43;;;;;;;2.38;1.33;;;15.90;81.20;;;;;;5011919;28;20041;-68
2022/04/07 12:04:10;;;;;;;1.75;1.00;;;15.80;81.80;;;;;;5017047;28;20532;-67
2022/04/07 12:06:38;;;;;;;2.05;1.00;;;15.80;82.50;;;;;;5021474;28;20030;-68
2022/04/07 12:09:05;;;;;;;1.58;0.80;;;15.70;83.10;;;;;;5020134;28;20033;-68
2022/04/07 12:11:36;;;;;;;1.42;1.00;;;15.60;83.60;;;;;;5025438;28;20195;-68
2022/04/07 12:14:11;;;;;;;1.98;1.05;;;15.50;84.30;;;;;;5012387;28;20044;-68
2022/04/07 12:16:47;;;;;;;1.15;0.88;;;15.50;84.80;;;;;;5013972;28;20029;-67
2022/04/07 12:19:13;;;;;;;1.05;0.77;;;15.40;85.20;;;;;;5016759;28;20026;-67
2022/04/07 12:22:00;;;;;;;2.92;1.00;;;15.40;85.10;;;;;;5029640;28;20103;-67
2022/04/07 12:24:27;;;;;;;2.03;1.10;;;15.30;85.50;;;;;;5024741;28;20039;-68
2022/04/07 12:26:55;;;;;;;3.17;1.10;;;15.30;85.90;;;;;;5024609;28;20036;-67
2022/04/07 12:29:24;;;;;;;2.42;1.17;;;15.20;87.00;;;;;;5041281;28;20024;-67
2022/04/07 12:32:06;;;;;;;3.55;1.35;;;15.20;87.30;;;;;;5018570;28;20044;-66
2022/04/07 12:34:32;;;;;;;2.55;0.93;;;15.20;87.70;;;;;;5030449;28;20044;-66
2022/04/07 12:36:57;;;;;;;2.17;1.00;;;15.10;88.50;;;;;;5025469;28;20026;-66
2022/04/07 12:39:33;;;;;;;3.58;1.58;;;15.10;89.20;;;;;;5019286;28;20184;-67
2022/04/07 12:42:10;;;;;;;3.15;1.27;;;15.00;89.50;;;;;;5011835;28;20418;-67
2022/04/07 12:44:43;;;;;;;1.10;0.90;;;15.00;90.00;;;;;;5026768;28;20140;-67
2022/04/07 12:47:16;;;;;;;2.15;1.13;;;15.00;90.00;;;;;;5019317;28;20050;-67
2022/04/07 12:50:01;;;;;;;2.63;1.30;;;15.00;90.20;;;;;;5026168;28;20446;-66